createdAt,value
2023-02-23T00:01:39.877Z,100803.31
2023-02-23T00:04:06.933Z,100807.91
2023-02-23T00:06:35.563Z,100807.03
2023-02-23T00:09:02.446Z,100802.59
2023-02-23T00:11:29.242Z,100810.44
2023-02-23T00:13:56.864Z,100793.28
2023-02-23T00:16:25.746Z,100790.63
2023-02-23T00:18:54.470Z,100791.72
2023-02-23T00:21:22.670Z,100793.41
2023-02-23T00:23:53.409Z,100792.03
2023-02-23T00:26:40.896Z,100798.13
2023-02-23T00:29:08.870Z,100790.56
2023-02-23T00:31:36.195Z,100799.69
2023-02-23T00:34:04.069Z,100784.31
2023-02-23T00:36:32.931Z,100791.50
2023-02-23T00:39:00.913Z,100792.16
2023-02-23T00:41:30.170Z,100791.53
2023-02-23T00:43:57.965Z,100788.00
2023-02-23T00:46:27.025Z,100790.22
2023-02-23T00:48:55.684Z,100783.28
2023-02-23T00:51:23.011Z,100788.84
2023-02-23T00:53:49.856Z,100791.47
2023-02-23T00:56:16.756Z,100785.47
2023-02-23T00:58:43.601Z,100778.56
2023-02-23T01:01:11.442Z,100780.03
2023-02-23T01:03:39.129Z,100791.72
2023-02-23T01:06:06.958Z,100783.66
2023-02-23T01:08:34.450Z,100782.03
2023-02-23T01:11:06.559Z,100780.22
2023-02-23T01:13:33.128Z,100785.38
2023-02-23T01:15:59.812Z,100786.13
2023-02-23T01:18:26.459Z,100790.47
2023-02-23T01:20:53.338Z,100792.69
2023-02-23T01:23:21.188Z,100789.03
2023-02-23T01:25:48.243Z,100783.69
2023-02-23T01:28:15.212Z,100790.16
2023-02-23T01:30:42.000Z,100788.28
2023-02-23T01:33:09.231Z,100787.69
2023-02-23T01:35:36.058Z,100785.53
2023-02-23T01:38:03.681Z,100787.91
2023-02-23T01:40:30.508Z,100787.81
2023-02-23T01:43:26.652Z,100785.03
2023-02-23T01:45:58.062Z,100787.13
2023-02-23T01:48:32.596Z,100785.09
2023-02-23T01:51:05.311Z,100789.72
2023-02-23T01:53:35.476Z,100782.44
2023-02-23T01:56:06.058Z,100783.50
2023-02-23T01:58:34.165Z,100779.09
2023-02-23T02:01:03.968Z,100780.75
2023-02-23T02:03:36.808Z,100780.53
2023-02-23T02:06:04.461Z,100771.59
2023-02-23T02:08:31.715Z,100776.16
2023-02-23T02:10:58.727Z,100769.94
2023-02-23T02:13:28.107Z,100764.16
2023-02-23T02:15:54.974Z,100761.91
2023-02-23T02:18:32.559Z,100762.81
2023-02-23T02:21:18.550Z,100760.31
2023-02-23T02:23:51.007Z,100764.03
2023-02-23T02:26:24.207Z,100772.63
2023-02-23T02:28:56.913Z,100766.50
2023-02-23T02:31:41.712Z,100762.81
2023-02-23T02:34:23.507Z,100766.09
2023-02-23T02:36:50.110Z,100763.28
2023-02-23T02:39:38.064Z,100764.59
2023-02-23T02:42:11.040Z,100767.16
2023-02-23T02:44:42.189Z,100767.69
2023-02-23T02:47:12.522Z,100760.78
2023-02-23T02:49:45.356Z,100757.31
2023-02-23T02:52:17.972Z,100760.75
2023-02-23T02:54:49.225Z,100760.25
2023-02-23T02:57:17.434Z,100757.91
2023-02-23T03:00:07.379Z,100760.75
2023-02-23T03:03:01.743Z,100763.59
2023-02-23T03:05:49.014Z,100756.84
2023-02-23T03:08:45.748Z,100762.88
2023-02-23T03:11:32.297Z,100759.09
2023-02-23T03:14:43.449Z,100755.81
2023-02-23T03:17:43.853Z,100757.22
2023-02-23T03:20:34.839Z,100757.53
2023-02-23T03:23:38.528Z,100757.16
2023-02-23T03:26:40.275Z,100763.59
2023-02-23T03:29:25.463Z,100761.28
2023-02-23T03:32:22.135Z,100768.13
2023-02-23T03:35:14.980Z,100757.66
2023-02-23T03:38:02.875Z,100756.78
2023-02-23T03:40:58.833Z,100756.13
2023-02-23T03:43:46.298Z,100750.75
2023-02-23T03:46:32.363Z,100752.06
2023-02-23T03:49:20.385Z,100765.31
2023-02-23T03:52:09.141Z,100760.13
2023-02-23T03:54:57.138Z,100757.00
2023-02-23T03:57:45.327Z,100754.19
2023-02-23T04:00:34.654Z,100763.59
2023-02-23T04:03:22.367Z,100751.56
2023-02-23T04:06:09.574Z,100755.22
2023-02-23T04:08:56.880Z,100749.34
2023-02-23T04:11:41.774Z,100752.03
2023-02-23T04:14:15.351Z,100756.88
2023-02-23T04:16:42.661Z,100747.69
2023-02-23T04:19:09.433Z,100753.44
2023-02-23T04:21:36.040Z,100750.22
2023-02-23T04:24:02.580Z,100751.88
2023-02-23T04:26:29.052Z,100741.16
2023-02-23T04:28:55.592Z,100747.00
2023-02-23T04:31:25.230Z,100747.97
2023-02-23T04:33:52.238Z,100750.28
2023-02-23T04:36:19.082Z,100748.53
2023-02-23T04:38:45.896Z,100754.31
2023-02-23T04:41:13.099Z,100753.22
2023-02-23T04:43:39.781Z,100753.38
2023-02-23T04:46:06.241Z,100750.78
2023-02-23T04:48:32.983Z,100755.03
2023-02-23T04:50:59.875Z,100746.19
2023-02-23T04:53:27.242Z,100744.75
2023-02-23T04:55:53.648Z,100750.44
2023-02-23T04:58:20.603Z,100750.13
2023-02-23T05:00:47.339Z,100755.13
2023-02-23T05:03:14.608Z,100753.25
2023-02-23T05:05:41.211Z,100759.34
2023-02-23T05:08:07.737Z,100754.41
2023-02-23T05:10:34.801Z,100759.28
2023-02-23T05:13:01.423Z,100753.91
2023-02-23T05:15:28.251Z,100756.63
2023-02-23T05:18:06.681Z,100752.72
2023-02-23T05:20:39.163Z,100752.38
2023-02-23T05:23:06.017Z,100758.47
2023-02-23T05:25:34.032Z,100757.31
2023-02-23T05:28:00.905Z,100750.84
2023-02-23T05:30:27.924Z,100748.41
2023-02-23T05:32:54.989Z,100758.47
2023-02-23T05:35:21.853Z,100751.50
2023-02-23T05:37:48.698Z,100748.59
2023-02-23T05:40:15.394Z,100745.78
2023-02-23T05:42:42.399Z,100746.59
2023-02-23T05:45:12.396Z,100747.69
2023-02-23T05:47:39.166Z,100742.81
2023-02-23T05:50:07.411Z,100742.84
2023-02-23T05:52:37.155Z,100740.56
2023-02-23T05:55:05.152Z,100739.97
2023-02-23T05:57:31.909Z,100745.78
2023-02-23T05:59:58.968Z,100746.28
2023-02-23T06:02:27.451Z,100755.31
2023-02-23T06:04:54.076Z,100754.09
2023-02-23T06:07:20.714Z,100746.59
2023-02-23T06:09:47.377Z,100758.47
2023-02-23T06:12:14.396Z,100747.00
2023-02-23T06:14:40.949Z,100757.03
2023-02-23T06:17:07.967Z,100758.97
2023-02-23T06:19:35.089Z,100754.25
2023-02-23T06:22:02.172Z,100764.81
2023-02-23T06:24:28.678Z,100771.31
2023-02-23T06:26:55.791Z,100776.44
2023-02-23T06:29:22.902Z,100776.66
2023-02-23T06:31:49.515Z,100773.84
2023-02-23T06:34:16.702Z,100774.97
2023-02-23T06:36:43.528Z,100781.00
2023-02-23T06:39:11.089Z,100780.22
2023-02-23T06:41:38.512Z,100772.56
2023-02-23T06:44:05.158Z,100781.56
2023-02-23T06:46:33.641Z,100781.78
2023-02-23T06:49:00.681Z,100779.16
2023-02-23T06:51:27.130Z,100789.78
2023-02-23T06:53:53.681Z,100788.00
2023-02-23T06:56:20.548Z,100796.00
2023-02-23T06:58:48.013Z,100798.63
2023-02-23T07:01:15.719Z,100797.56
2023-02-23T07:03:42.549Z,100792.16
2023-02-23T07:06:09.725Z,100804.34
2023-02-23T07:08:36.849Z,100803.91
2023-02-23T07:11:11.762Z,100804.75
2023-02-23T07:13:38.377Z,100803.72
2023-02-23T07:16:05.541Z,100807.56
2023-02-23T07:18:32.976Z,100816.56
2023-02-23T07:20:59.513Z,100813.81
2023-02-23T07:23:26.090Z,100815.75
2023-02-23T07:25:53.412Z,100817.69
2023-02-23T07:28:21.583Z,100817.56
2023-02-23T07:30:49.927Z,100814.88
2023-02-23T07:33:17.009Z,100816.22
2023-02-23T07:35:44.950Z,100815.69
2023-02-23T07:38:13.630Z,100826.03
2023-02-23T07:40:40.296Z,100821.41
2023-02-23T07:43:08.858Z,100829.59
2023-02-23T07:45:36.116Z,100832.44
2023-02-23T07:48:02.989Z,100830.50
2023-02-23T07:50:29.694Z,100825.63
2023-02-23T07:52:56.706Z,100828.44
2023-02-23T07:55:23.953Z,100833.66
2023-02-23T07:57:50.489Z,100832.56
2023-02-23T08:00:17.348Z,100836.31
2023-02-23T08:02:44.305Z,100834.56
2023-02-23T08:05:11.169Z,100840.41
2023-02-23T08:07:38.196Z,100841.44
2023-02-23T08:10:06.888Z,100840.56
2023-02-23T08:12:34.243Z,100845.53
2023-02-23T08:15:00.613Z,100847.06
2023-02-23T08:17:27.535Z,100839.84
2023-02-23T08:19:54.206Z,100843.09
2023-02-23T08:22:21.889Z,100845.63
2023-02-23T08:24:48.765Z,100854.38
2023-02-23T08:27:15.522Z,100851.25
2023-02-23T08:29:42.328Z,100848.19
2023-02-23T08:32:09.784Z,100850.06
2023-02-23T08:34:40.737Z,100849.28
2023-02-23T08:37:07.723Z,100855.66
2023-02-23T08:39:34.740Z,100859.84
2023-02-23T08:42:01.200Z,100862.56
2023-02-23T08:44:27.889Z,100863.38
2023-02-23T08:46:55.744Z,100855.28
2023-02-23T08:49:23.106Z,100854.19
2023-02-23T08:51:50.232Z,100859.22
2023-02-23T08:54:17.441Z,100858.13
2023-02-23T08:56:44.942Z,100852.09
2023-02-23T08:59:12.516Z,100849.56
2023-02-23T09:01:40.235Z,100846.03
2023-02-23T09:04:07.043Z,100846.53
2023-02-23T09:06:35.315Z,100853.41
2023-02-23T09:09:03.209Z,100848.66
2023-02-23T09:11:30.003Z,100853.38
2023-02-23T09:13:56.638Z,100854.28
2023-02-23T09:16:23.266Z,100848.59
2023-02-23T09:18:49.682Z,100844.13
2023-02-23T09:21:22.223Z,100850.91
2023-02-23T09:23:51.490Z,100844.94
2023-02-23T09:26:19.270Z,100852.09
2023-02-23T09:28:46.215Z,100854.97
2023-02-23T09:31:15.656Z,100851.38
2023-02-23T09:33:43.222Z,100853.88
2023-02-23T09:36:16.195Z,100850.59
2023-02-23T09:38:47.127Z,100856.81
2023-02-23T09:41:25.900Z,100854.63
2023-02-23T09:43:54.399Z,100859.25
2023-02-23T09:46:34.102Z,100869.81
2023-02-23T09:49:03.213Z,100870.72
2023-02-23T09:51:30.605Z,100876.19
2023-02-23T09:53:59.729Z,100876.19
2023-02-23T09:56:29.525Z,100884.53
2023-02-23T09:58:56.953Z,100877.09
2023-02-23T10:01:42.396Z,100881.41
2023-02-23T10:04:14.838Z,100877.16
2023-02-23T10:06:44.264Z,100869.72
2023-02-23T10:09:34.620Z,100871.13
2023-02-23T10:12:13.953Z,100874.19
2023-02-23T10:15:12.941Z,100881.50
2023-02-23T10:17:46.757Z,100881.34
2023-02-23T10:20:32.253Z,100880.63
2023-02-23T10:23:03.899Z,100881.06
2023-02-23T10:25:32.236Z,100884.56
2023-02-23T10:28:00.043Z,100885.41
2023-02-23T10:30:29.073Z,100885.13
2023-02-23T10:32:59.799Z,100887.63
2023-02-23T10:35:29.199Z,100884.41
2023-02-23T10:37:56.574Z,100891.03
2023-02-23T10:40:25.606Z,100893.31
2023-02-23T10:42:54.187Z,100897.34
2023-02-23T10:45:25.708Z,100884.63
2023-02-23T10:47:55.341Z,100895.44
2023-02-23T10:50:22.598Z,100894.13
2023-02-23T10:52:52.779Z,100901.75
2023-02-23T10:55:26.419Z,100903.31
2023-02-23T10:58:02.529Z,100905.22
2023-02-23T11:00:32.985Z,100897.97
2023-02-23T11:03:01.188Z,100898.41
2023-02-23T11:05:30.402Z,100900.66
2023-02-23T11:08:30.790Z,100885.88
2023-02-23T11:11:20.946Z,100893.97
2023-02-23T11:13:49.206Z,100893.13
2023-02-23T11:16:21.186Z,100887.34
2023-02-23T11:18:56.697Z,100879.34
2023-02-23T11:21:29.626Z,100876.09
2023-02-23T11:23:57.667Z,100876.19
2023-02-23T11:26:24.249Z,100874.28
2023-02-23T11:28:53.221Z,100872.41
2023-02-23T11:31:21.850Z,100875.09
2023-02-23T11:33:50.087Z,100880.16
2023-02-23T11:36:21.453Z,100872.66
2023-02-23T11:38:48.418Z,100877.19
2023-02-23T11:41:21.101Z,100874.44
2023-02-23T11:43:54.871Z,100863.59
2023-02-23T11:46:23.039Z,100860.66
2023-02-23T11:49:04.325Z,100863.06
2023-02-23T11:51:36.231Z,100861.19
2023-02-23T11:54:05.496Z,100857.44
2023-02-23T11:56:33.896Z,100865.16
2023-02-23T11:59:04.916Z,100858.94
2023-02-23T12:01:45.875Z,100857.38
2023-02-23T12:04:32.718Z,100855.66
2023-02-23T12:07:18.619Z,100864.94
2023-02-23T12:09:46.411Z,100856.91
2023-02-23T12:12:15.637Z,100858.41
2023-02-23T12:14:50.056Z,100858.00
2023-02-23T12:17:20.166Z,100863.72
2023-02-23T12:19:55.471Z,100858.16
2023-02-23T12:22:25.707Z,100859.00
2023-02-23T12:25:05.017Z,100858.84
2023-02-23T12:27:31.626Z,100864.47
2023-02-23T12:30:17.417Z,100858.22
2023-02-23T12:32:48.051Z,100857.38
2023-02-23T12:35:21.813Z,100863.97
2023-02-23T12:37:54.081Z,100859.75
2023-02-23T12:40:35.549Z,100865.03
2023-02-23T12:43:05.859Z,100861.03
2023-02-23T12:45:53.106Z,100857.97
2023-02-23T12:48:33.895Z,100867.72
2023-02-23T12:51:02.066Z,100868.66
2023-02-23T12:53:44.556Z,100864.00
2023-02-23T12:56:11.918Z,100858.44
2023-02-23T12:58:38.759Z,100856.03
2023-02-23T13:01:05.722Z,100858.72
2023-02-23T13:03:40.218Z,100860.59
2023-02-23T13:06:25.487Z,100852.25
2023-02-23T13:08:52.095Z,100849.34
2023-02-23T13:11:24.743Z,100855.53
2023-02-23T13:13:58.110Z,100851.75
2023-02-23T13:16:34.499Z,100847.31
2023-02-23T13:19:09.842Z,100839.31
2023-02-23T13:21:54.712Z,100844.19
2023-02-23T13:24:26.821Z,100831.72
2023-02-23T13:26:53.177Z,100830.56
2023-02-23T13:29:29.405Z,100833.66
2023-02-23T13:31:57.961Z,100840.69
2023-02-23T13:34:27.011Z,100831.94
2023-02-23T13:36:54.969Z,100832.88
2023-02-23T13:39:36.857Z,100841.59
2023-02-23T13:42:03.346Z,100822.69
2023-02-23T13:44:37.383Z,100821.16
2023-02-23T13:47:14.363Z,100828.22
2023-02-23T13:50:03.899Z,100824.34
2023-02-23T13:52:40.539Z,100826.06
2023-02-23T13:55:34.625Z,100823.69
2023-02-23T13:58:24.226Z,100823.53
2023-02-23T14:01:04.185Z,100826.13
2023-02-23T14:03:36.102Z,100825.78
2023-02-23T14:06:04.208Z,100819.25
2023-02-23T14:08:42.942Z,100823.59
2023-02-23T14:11:09.783Z,100820.81
2023-02-23T14:13:40.778Z,100832.19
2023-02-23T14:16:12.154Z,100825.50
2023-02-23T14:18:54.621Z,100826.09
2023-02-23T14:21:35.982Z,100821.72
2023-02-23T14:24:03.165Z,100820.59
2023-02-23T14:26:29.814Z,100823.38
2023-02-23T14:29:15.277Z,100823.16
2023-02-23T14:31:54.177Z,100823.97
2023-02-23T14:34:23.222Z,100832.66
2023-02-23T14:36:53.526Z,100822.34
2023-02-23T14:39:24.715Z,100821.13
2023-02-23T14:41:55.262Z,100822.41
2023-02-23T14:44:31.127Z,100827.94
2023-02-23T14:47:01.439Z,100819.63
2023-02-23T14:49:29.034Z,100821.88
2023-02-23T14:51:56.876Z,100829.69
2023-02-23T14:54:26.580Z,100834.38
2023-02-23T14:56:56.629Z,100826.81
2023-02-23T14:59:24.383Z,100824.59
2023-02-23T15:01:52.401Z,100820.28
2023-02-23T15:04:22.762Z,100826.75
2023-02-23T15:06:50.112Z,100823.81
2023-02-23T15:09:18.760Z,100831.41
2023-02-23T15:11:49.990Z,100840.16
2023-02-23T15:14:27.411Z,100827.88
2023-02-23T15:16:56.414Z,100838.53
2023-02-23T15:19:26.021Z,100833.91
2023-02-23T15:21:55.139Z,100829.19
2023-02-23T15:24:25.067Z,100834.69
2023-02-23T15:26:52.312Z,100834.38
2023-02-23T15:29:23.723Z,100840.78
2023-02-23T15:31:55.238Z,100846.97
2023-02-23T15:34:24.266Z,100840.03
2023-02-23T15:36:53.173Z,100841.50
2023-02-23T15:39:23.061Z,100833.38
2023-02-23T15:41:49.891Z,100834.09
2023-02-23T15:44:27.314Z,100841.16
2023-02-23T15:46:56.801Z,100840.06
2023-02-23T15:49:26.314Z,100832.19
2023-02-23T15:51:59.361Z,100838.94
2023-02-23T15:54:31.493Z,100836.56
2023-02-23T15:56:59.396Z,100832.75
2023-02-23T15:59:30.979Z,100832.38
2023-02-23T16:01:59.117Z,100837.03
2023-02-23T16:04:29.003Z,100841.25
2023-02-23T16:07:13.423Z,100839.66
2023-02-23T16:09:41.275Z,100837.56
2023-02-23T16:12:07.831Z,100834.25
2023-02-23T16:14:43.621Z,100833.78
2023-02-23T16:17:20.378Z,100831.06
2023-02-23T16:19:47.291Z,100838.94
2023-02-23T16:22:25.171Z,100840.25
2023-02-23T16:25:02.935Z,100829.81
2023-02-23T16:27:30.553Z,100839.78
2023-02-23T16:30:00.322Z,100837.97
2023-02-23T16:32:47.785Z,100847.31
2023-02-23T16:35:16.336Z,100853.38
2023-02-23T16:38:01.467Z,100854.59
2023-02-23T16:40:45.544Z,100859.66
2023-02-23T16:43:12.216Z,100858.13
2023-02-23T16:45:41.666Z,100857.59
2023-02-23T16:48:16.907Z,100846.31
2023-02-23T16:50:45.539Z,100863.94
2023-02-23T16:53:12.759Z,100871.63
2023-02-23T16:55:41.532Z,100870.31
2023-02-23T16:58:31.241Z,100874.94
2023-02-23T17:00:57.879Z,100877.16
2023-02-23T17:03:26.435Z,100874.28
2023-02-23T17:06:04.697Z,100875.19
2023-02-23T17:08:31.913Z,100878.47
2023-02-23T17:11:13.366Z,100883.22
2023-02-23T17:13:40.520Z,100887.03
2023-02-23T17:16:19.434Z,100894.00
2023-02-23T17:18:48.947Z,100891.88
2023-02-23T17:21:23.983Z,100897.75
2023-02-23T17:23:51.473Z,100896.22
2023-02-23T17:26:25.262Z,100894.88
2023-02-23T17:28:58.147Z,100904.47
2023-02-23T17:31:27.124Z,100904.56
2023-02-23T17:33:55.483Z,100901.34
2023-02-23T17:36:24.298Z,100905.34
2023-02-23T17:38:58.705Z,100899.38
2023-02-23T17:41:27.219Z,100907.72
2023-02-23T17:43:54.286Z,100906.94
2023-02-23T17:46:34.755Z,100911.81
2023-02-23T17:49:02.250Z,100907.09
2023-02-23T17:51:50.235Z,100917.19
2023-02-23T17:54:17.166Z,100919.59
2023-02-23T17:56:44.072Z,100918.63
2023-02-23T17:59:11.290Z,100913.97
2023-02-23T18:01:40.277Z,100912.03
2023-02-23T18:04:14.432Z,100911.81
2023-02-23T18:06:41.975Z,100922.16
2023-02-23T18:09:20.978Z,100913.53
2023-02-23T18:11:47.877Z,100912.50
2023-02-23T18:14:14.896Z,100911.94
2023-02-23T18:16:48.147Z,100908.75
2023-02-23T18:19:16.417Z,100907.81
2023-02-23T18:21:44.016Z,100902.94
2023-02-23T18:24:11.892Z,100908.66
2023-02-23T18:26:51.440Z,100907.59
2023-02-23T18:29:21.031Z,100908.94
2023-02-23T18:31:50.281Z,100905.78
2023-02-23T18:34:29.517Z,100911.72
2023-02-23T18:36:57.538Z,100916.66
2023-02-23T18:39:24.473Z,100924.00
2023-02-23T18:41:51.651Z,100917.41
2023-02-23T18:44:22.009Z,100928.28
2023-02-23T18:46:49.231Z,100926.22
2023-02-23T18:49:17.429Z,100926.50
2023-02-23T18:51:51.339Z,100920.81
2023-02-23T18:54:18.956Z,100915.75
2023-02-23T18:56:48.500Z,100921.38
2023-02-23T18:59:15.639Z,100927.75
2023-02-23T19:01:49.823Z,100926.44
2023-02-23T19:04:16.944Z,100914.25
2023-02-23T19:06:47.339Z,100920.13
2023-02-23T19:09:19.884Z,100921.41
2023-02-23T19:11:47.405Z,100919.25
2023-02-23T19:14:18.294Z,100911.59
2023-02-23T19:16:46.869Z,100916.47
2023-02-23T19:19:14.621Z,100913.50
2023-02-23T19:21:43.359Z,100911.66
2023-02-23T19:24:11.113Z,100916.88
2023-02-23T19:26:39.941Z,100917.31
2023-02-23T19:29:08.817Z,100909.38
2023-02-23T19:31:37.408Z,100911.63
2023-02-23T19:34:06.128Z,100916.81
2023-02-23T19:36:34.521Z,100916.59
2023-02-23T19:39:10.538Z,100916.28
2023-02-23T19:41:39.207Z,100920.06
2023-02-23T19:44:14.663Z,100916.38
2023-02-23T19:46:43.260Z,100914.81
2023-02-23T19:49:21.598Z,100911.66
2023-02-23T19:51:51.043Z,100912.06
2023-02-23T19:54:18.264Z,100911.69
2023-02-23T19:56:45.102Z,100921.78
2023-02-23T19:59:13.482Z,100920.31
2023-02-23T20:01:40.560Z,100922.91
2023-02-23T20:04:13.595Z,100918.41
2023-02-23T20:06:48.451Z,100917.78
2023-02-23T20:09:15.377Z,100920.47
2023-02-23T20:11:42.857Z,100926.53
2023-02-23T20:14:10.519Z,100920.59
2023-02-23T20:16:40.515Z,100925.72
2023-02-23T20:19:07.918Z,100921.16
2023-02-23T20:21:37.095Z,100919.84
2023-02-23T20:24:05.993Z,100911.94
2023-02-23T20:26:35.569Z,100919.50
2023-02-23T20:29:18.044Z,100921.25
2023-02-23T20:31:50.761Z,100916.59
2023-02-23T20:34:21.495Z,100913.72
2023-02-23T20:36:53.873Z,100912.00
2023-02-23T20:39:21.035Z,100922.78
2023-02-23T20:41:53.642Z,100912.19
2023-02-23T20:44:22.054Z,100909.97
2023-02-23T20:46:49.032Z,100912.09
2023-02-23T20:49:18.526Z,100913.44
2023-02-23T20:51:46.249Z,100910.78
2023-02-23T20:54:21.381Z,100908.31
2023-02-23T20:56:59.192Z,100900.50
2023-02-23T20:59:30.605Z,100906.84
2023-02-23T21:01:57.468Z,100909.97
2023-02-23T21:04:24.247Z,100907.97
2023-02-23T21:06:51.588Z,100904.31
2023-02-23T21:09:18.565Z,100902.41
2023-02-23T21:11:49.604Z,100900.28
2023-02-23T21:14:16.884Z,100893.53
2023-02-23T21:16:46.772Z,100906.28
2023-02-23T21:19:14.595Z,100897.41
2023-02-23T21:21:47.145Z,100890.47
2023-02-23T21:24:15.866Z,100898.94
2023-02-23T21:26:43.061Z,100900.94
2023-02-23T21:29:16.788Z,100893.69
2023-02-23T21:31:45.248Z,100894.56
2023-02-23T21:34:12.561Z,100883.28
2023-02-23T21:36:39.564Z,100888.66
2023-02-23T21:39:07.188Z,100897.03
2023-02-23T21:41:41.638Z,100891.91
2023-02-23T21:44:09.834Z,100884.94
2023-02-23T21:46:42.018Z,100884.91
2023-02-23T21:49:09.980Z,100883.19
2023-02-23T21:51:39.554Z,100883.44
2023-02-23T21:54:07.495Z,100875.94
2023-02-23T21:56:35.888Z,100885.31
2023-02-23T21:59:06.234Z,100875.56
2023-02-23T22:01:38.240Z,100873.09
2023-02-23T22:04:06.749Z,100869.53
2023-02-23T22:06:42.161Z,100864.19
2023-02-23T22:09:13.257Z,100865.84
2023-02-23T22:11:44.082Z,100867.34
2023-02-23T22:14:12.977Z,100856.47
2023-02-23T22:16:44.832Z,100856.88
2023-02-23T22:19:12.578Z,100858.03
2023-02-23T22:21:42.024Z,100854.66
2023-02-23T22:24:09.947Z,100862.91
2023-02-23T22:26:39.816Z,100860.13
2023-02-23T22:29:13.324Z,100851.31
2023-02-23T22:31:40.693Z,100850.75
2023-02-23T22:34:08.662Z,100853.28
2023-02-23T22:36:35.400Z,100853.28
2023-02-23T22:39:02.888Z,100839.63
2023-02-23T22:41:43.362Z,100848.78
2023-02-23T22:44:12.394Z,100830.94
2023-02-23T22:46:53.285Z,100839.84
2023-02-23T22:49:20.605Z,100833.41
2023-02-23T22:51:55.174Z,100825.44
2023-02-23T22:54:24.276Z,100820.69
2023-02-23T22:56:51.272Z,100810.00
2023-02-23T22:59:20.769Z,100813.22
2023-02-23T23:01:50.511Z,100805.97
2023-02-23T23:04:17.574Z,100795.97
2023-02-23T23:06:44.268Z,100799.75
2023-02-23T23:09:17.184Z,100796.72
2023-02-23T23:11:45.102Z,100793.59
2023-02-23T23:14:13.418Z,100791.84
2023-02-23T23:16:48.944Z,100789.03
2023-02-23T23:19:24.730Z,100788.72
2023-02-23T23:22:00.621Z,100780.72
2023-02-23T23:24:27.630Z,100770.47
2023-02-23T23:27:00.955Z,100767.41
2023-02-23T23:29:30.468Z,100772.88
2023-02-23T23:31:57.622Z,100762.78
2023-02-23T23:34:26.897Z,100765.84
2023-02-23T23:36:53.676Z,100759.56
2023-02-23T23:39:22.352Z,100755.47
2023-02-23T23:41:56.537Z,100750.06
2023-02-23T23:44:29.911Z,100746.13
2023-02-23T23:46:57.240Z,100747.38
2023-02-23T23:49:27.845Z,100739.84
2023-02-23T23:51:59.636Z,100741.75
2023-02-23T23:54:39.356Z,100736.84
2023-02-23T23:57:06.867Z,100734.91
2023-02-23T23:59:34.365Z,100729.31
